sensor_id;sensor_type;location;lat;lon;timestamp;temperature;humidity
27409;DHT22;20413;50.782;7.152;2022-07-15T00:02:07;17.80;99.90
27409;DHT22;20413;50.782;7.152;2022-07-15T00:04:34;17.70;99.90
27409;DHT22;20413;50.782;7.152;2022-07-15T00:07:00;17.70;99.90
27409;DHT22;20413;50.782;7.152;2022-07-15T00:09:25;17.60;99.90
27409;DHT22;20413;50.782;7.152;2022-07-15T00:12:10;17.60;99.90
27409;DHT22;20413;50.782;7.152;2022-07-15T00:14:36;17.50;99.90
27409;DHT22;20413;50.782;7.152;2022-07-15T00:17:02;17.50;99.90
27409;DHT22;20413;50.782;7.152;2022-07-15T00:19:28;17.40;99.90
27409;DHT22;20413;50.782;7.152;2022-07-15T00:21:53;17.40;99.90
27409;DHT22;20413;50.782;7.152;2022-07-15T00:24:19;17.30;99.90
27409;DHT22;20413;50.782;7.152;2022-07-15T00:26:44;17.20;99.90
27409;DHT22;20413;50.782;7.152;2022-07-15T00:29:10;17.20;99.90
27409;DHT22;20413;50.782;7.152;2022-07-15T00:31:36;17.10;99.90
27409;DHT22;20413;50.782;7.152;2022-07-15T00:34:02;17.10;99.90
27409;DHT22;20413;50.782;7.152;2022-07-15T00:36:28;17.00;99.90
27409;DHT22;20413;50.782;7.152;2022-07-15T00:38:53;17.00;99.90
27409;DHT22;20413;50.782;7.152;2022-07-15T00:41:19;17.00;99.90
27409;DHT22;20413;50.782;7.152;2022-07-15T00:43:45;16.90;99.90
27409;DHT22;20413;50.782;7.152;2022-07-15T00:46:15;16.90;99.90
27409;DHT22;20413;50.782;7.152;2022-07-15T00:48:41;16.90;99.90
27409;DHT22;20413;50.782;7.152;2022-07-15T00:51:06;16.90;99.90
27409;DHT22;20413;50.782;7.152;2022-07-15T00:53:34;16.80;99.90
27409;DHT22;20413;50.782;7.152;2022-07-15T00:56:02;16.70;99.90
27409;DHT22;20413;50.782;7.152;2022-07-15T00:58:29;16.70;99.90
27409;DHT22;20413;50.782;7.152;2022-07-15T01:00:56;16.70;99.90
27409;DHT22;20413;50.782;7.152;2022-07-15T01:03:22;16.60;99.90
27409;DHT22;20413;50.782;7.152;2022-07-15T01:05:48;16.60;99.90
27409;DHT22;20413;50.782;7.152;2022-07-15T01:08:14;16.60;99.90
27409;DHT22;20413;50.782;7.152;2022-07-15T01:10:40;16.60;99.90
27409;DHT22;20413;50.782;7.152;2022-07-15T01:13:06;16.60;99.90
27409;DHT22;20413;50.782;7.152;2022-07-15T01:15:32;16.60;99.90
27409;DHT22;20413;50.782;7.152;2022-07-15T01:18:00;16.50;99.90
27409;DHT22;20413;50.782;7.152;2022-07-15T01:20:26;16.50;99.90
27409;DHT22;20413;50.782;7.152;2022-07-15T01:22:52;16.50;99.90
27409;DHT22;20413;50.782;7.152;2022-07-15T01:25:17;16.40;99.90
27409;DHT22;20413;50.782;7.152;2022-07-15T01:27:43;16.40;99.90
27409;DHT22;20413;50.782;7.152;2022-07-15T01:30:09;16.30;99.90
27409;DHT22;20413;50.782;7.152;2022-07-15T01:32:35;16.30;99.90
27409;DHT22;20413;50.782;7.152;2022-07-15T01:35:01;16.30;99.90
27409;DHT22;20413;50.782;7.152;2022-07-15T01:37:26;16.30;99.90
27409;DHT22;20413;50.782;7.152;2022-07-15T01:39:52;16.30;99.90
27409;DHT22;20413;50.782;7.152;2022-07-15T01:42:18;16.30;99.90
27409;DHT22;20413;50.782;7.152;2022-07-15T01:44:43;16.20;99.90
27409;DHT22;20413;50.782;7.152;2022-07-15T01:47:09;16.20;99.90
27409;DHT22;20413;50.782;7.152;2022-07-15T01:49:36;16.10;99.90
27409;DHT22;20413;50.782;7.152;2022-07-15T01:52:03;16.10;99.90
27409;DHT22;20413;50.782;7.152;2022-07-15T01:54:31;16.10;99.90
27409;DHT22;20413;50.782;7.152;2022-07-15T01:56:57;16.00;99.90
27409;DHT22;20413;50.782;7.152;2022-07-15T01:59:23;16.00;99.90
27409;DHT22;20413;50.782;7.152;2022-07-15T02:01:50;16.00;99.90
27409;DHT22;20413;50.782;7.152;2022-07-15T02:04:17;16.10;99.90
27409;DHT22;20413;50.782;7.152;2022-07-15T02:06:43;16.10;99.90
27409;DHT22;20413;50.782;7.152;2022-07-15T02:09:08;16.10;99.90
27409;DHT22;20413;50.782;7.152;2022-07-15T02:11:35;16.20;99.90
27409;DHT22;20413;50.782;7.152;2022-07-15T02:14:00;16.30;99.90
27409;DHT22;20413;50.782;7.152;2022-07-15T02:16:28;16.30;99.90
27409;DHT22;20413;50.782;7.152;2022-07-15T02:18:54;16.40;99.90
27409;DHT22;20413;50.782;7.152;2022-07-15T02:21:19;16.40;99.90
27409;DHT22;20413;50.782;7.152;2022-07-15T02:23:45;16.50;99.90
27409;DHT22;20413;50.782;7.152;2022-07-15T02:26:10;16.40;99.90
27409;DHT22;20413;50.782;7.152;2022-07-15T02:28:36;16.50;99.90
27409;DHT22;20413;50.782;7.152;2022-07-15T02:31:01;16.50;99.90
27409;DHT22;20413;50.782;7.152;2022-07-15T02:33:27;16.50;99.90
27409;DHT22;20413;50.782;7.152;2022-07-15T02:35:53;16.50;99.90
27409;DHT22;20413;50.782;7.152;2022-07-15T02:38:19;16.50;99.90
27409;DHT22;20413;50.782;7.152;2022-07-15T02:40:46;16.50;99.90
27409;DHT22;20413;50.782;7.152;2022-07-15T02:43:12;16.50;99.90
27409;DHT22;20413;50.782;7.152;2022-07-15T02:45:38;16.60;99.90
27409;DHT22;20413;50.782;7.152;2022-07-15T02:48:04;16.60;99.90
27409;DHT22;20413;50.782;7.152;2022-07-15T02:50:30;16.60;99.90
27409;DHT22;20413;50.782;7.152;2022-07-15T02:52:56;16.60;99.90
27409;DHT22;20413;50.782;7.152;2022-07-15T02:55:22;16.60;99.90
27409;DHT22;20413;50.782;7.152;2022-07-15T02:57:47;16.70;99.90
27409;DHT22;20413;50.782;7.152;2022-07-15T03:00:16;16.60;99.90
27409;DHT22;20413;50.782;7.152;2022-07-15T03:02:46;16.70;99.90
27409;DHT22;20413;50.782;7.152;2022-07-15T03:05:12;16.70;99.90
27409;DHT22;20413;50.782;7.152;2022-07-15T03:07:39;16.70;99.90
27409;DHT22;20413;50.782;7.152;2022-07-15T03:10:06;16.60;99.90
27409;DHT22;20413;50.782;7.152;2022-07-15T03:12:32;16.70;99.90
27409;DHT22;20413;50.782;7.152;2022-07-15T03:14:59;16.60;99.90
27409;DHT22;20413;50.782;7.152;2022-07-15T03:17:24;16.60;99.90
27409;DHT22;20413;50.782;7.152;2022-07-15T03:19:50;16.60;99.90
27409;DHT22;20413;50.782;7.152;2022-07-15T03:22:15;16.60;99.90
27409;DHT22;20413;50.782;7.152;2022-07-15T03:24:41;16.60;99.90
27409;DHT22;20413;50.782;7.152;2022-07-15T03:27:07;16.60;99.90
27409;DHT22;20413;50.782;7.152;2022-07-15T03:29:34;16.60;99.90
27409;DHT22;20413;50.782;7.152;2022-07-15T03:32:00;16.60;99.90
27409;DHT22;20413;50.782;7.152;2022-07-15T03:34:25;16.60;99.90
27409;DHT22;20413;50.782;7.152;2022-07-15T03:36:52;16.70;99.90
27409;DHT22;20413;50.782;7.152;2022-07-15T03:39:17;16.70;99.90
27409;DHT22;20413;50.782;7.152;2022-07-15T03:41:43;16.70;99.90
27409;DHT22;20413;50.782;7.152;2022-07-15T03:44:08;16.70;99.90
27409;DHT22;20413;50.782;7.152;2022-07-15T03:46:34;16.70;99.90
27409;DHT22;20413;50.782;7.152;2022-07-15T03:49:00;16.70;99.90
27409;DHT22;20413;50.782;7.152;2022-07-15T03:51:26;16.60;99.90
27409;DHT22;20413;50.782;7.152;2022-07-15T03:54:05;16.60;99.90
27409;DHT22;20413;50.782;7.152;2022-07-15T03:56:32;16.70;99.90
27409;DHT22;20413;50.782;7.152;2022-07-15T03:58:58;16.70;99.90
27409;DHT22;20413;50.782;7.152;2022-07-15T04:01:24;16.70;99.90
27409;DHT22;20413;50.782;7.152;2022-07-15T04:03:52;16.60;99.90
27409;DHT22;20413;50.782;7.152;2022-07-15T04:06:19;16.70;99.90
27409;DHT22;20413;50.782;7.152;2022-07-15T04:08:46;16.70;99.90
27409;DHT22;20413;50.782;7.152;2022-07-15T04:11:12;16.70;99.90
27409;DHT22;20413;50.782;7.152;2022-07-15T04:13:38;16.70;99.90
27409;DHT22;20413;50.782;7.152;2022-07-15T04:16:05;16.70;99.90
27409;DHT22;20413;50.782;7.152;2022-07-15T04:18:31;16.70;99.90
27409;DHT22;20413;50.782;7.152;2022-07-15T04:20:57;16.70;99.90
27409;DHT22;20413;50.782;7.152;2022-07-15T04:23:23;16.70;99.90
27409;DHT22;20413;50.782;7.152;2022-07-15T04:25:49;16.80;99.90
27409;DHT22;20413;50.782;7.152;2022-07-15T04:28:17;16.80;99.90
27409;DHT22;20413;50.782;7.152;2022-07-15T04:30:43;16.80;99.90
27409;DHT22;20413;50.782;7.152;2022-07-15T04:33:09;16.80;99.90
27409;DHT22;20413;50.782;7.152;2022-07-15T04:35:34;16.80;99.90
27409;DHT22;20413;50.782;7.152;2022-07-15T04:38:00;16.90;99.90
27409;DHT22;20413;50.782;7.152;2022-07-15T04:40:26;16.90;99.90
27409;DHT22;20413;50.782;7.152;2022-07-15T04:42:51;16.80;99.90
27409;DHT22;20413;50.782;7.152;2022-07-15T04:45:17;16.80;99.90
27409;DHT22;20413;50.782;7.152;2022-07-15T04:47:42;16.90;99.90
27409;DHT22;20413;50.782;7.152;2022-07-15T04:50:08;16.90;99.90
27409;DHT22;20413;50.782;7.152;2022-07-15T04:52:53;16.90;99.90
27409;DHT22;20413;50.782;7.152;2022-07-15T04:55:18;17.10;99.90
27409;DHT22;20413;50.782;7.152;2022-07-15T04:57:44;17.10;99.90
27409;DHT22;20413;50.782;7.152;2022-07-15T05:00:10;17.10;99.90
27409;DHT22;20413;50.782;7.152;2022-07-15T05:02:36;17.20;99.90
27409;DHT22;20413;50.782;7.152;2022-07-15T05:05:02;17.20;99.90
27409;DHT22;20413;50.782;7.152;2022-07-15T05:07:28;17.20;99.90
27409;DHT22;20413;50.782;7.152;2022-07-15T05:09:54;17.30;99.90
27409;DHT22;20413;50.782;7.152;2022-07-15T05:12:22;17.20;99.90
27409;DHT22;20413;50.782;7.152;2022-07-15T05:14:50;17.30;99.90
27409;DHT22;20413;50.782;7.152;2022-07-15T05:17:16;17.30;99.90
27409;DHT22;20413;50.782;7.152;2022-07-15T05:19:41;17.40;99.90
27409;DHT22;20413;50.782;7.152;2022-07-15T05:22:07;17.50;99.90
27409;DHT22;20413;50.782;7.152;2022-07-15T05:24:45;17.60;99.90
27409;DHT22;20413;50.782;7.152;2022-07-15T05:27:14;17.50;99.90
27409;DHT22;20413;50.782;7.152;2022-07-15T05:29:40;17.50;99.90
27409;DHT22;20413;50.782;7.152;2022-07-15T05:32:05;17.60;99.90
27409;DHT22;20413;50.782;7.152;2022-07-15T05:34:31;17.60;99.90
27409;DHT22;20413;50.782;7.152;2022-07-15T05:36:57;17.70;99.90
27409;DHT22;20413;50.782;7.152;2022-07-15T05:39:23;17.80;99.90
27409;DHT22;20413;50.782;7.152;2022-07-15T05:41:49;17.80;99.90
27409;DHT22;20413;50.782;7.152;2022-07-15T05:44:15;17.90;99.90
27409;DHT22;20413;50.782;7.152;2022-07-15T05:46:41;17.70;99.90
27409;DHT22;20413;50.782;7.152;2022-07-15T05:49:06;17.70;99.90
27409;DHT22;20413;50.782;7.152;2022-07-15T05:51:32;17.70;99.90
27409;DHT22;20413;50.782;7.152;2022-07-15T05:53:59;17.80;99.90
27409;DHT22;20413;50.782;7.152;2022-07-15T05:56:25;18.00;99.90
27409;DHT22;20413;50.782;7.152;2022-07-15T05:58:50;18.00;99.90
27409;DHT22;20413;50.782;7.152;2022-07-15T06:01:16;18.10;99.90
27409;DHT22;20413;50.782;7.152;2022-07-15T06:03:42;18.20;99.90
27409;DHT22;20413;50.782;7.152;2022-07-15T06:06:08;18.30;99.90
27409;DHT22;20413;50.782;7.152;2022-07-15T06:08:34;18.30;99.90
27409;DHT22;20413;50.782;7.152;2022-07-15T06:11:00;18.30;99.90
27409;DHT22;20413;50.782;7.152;2022-07-15T06:13:26;18.40;99.90
27409;DHT22;20413;50.782;7.152;2022-07-15T06:15:52;18.40;99.90
27409;DHT22;20413;50.782;7.152;2022-07-15T06:18:18;18.40;99.90
27409;DHT22;20413;50.782;7.152;2022-07-15T06:20:43;18.30;99.90
27409;DHT22;20413;50.782;7.152;2022-07-15T06:23:09;18.40;99.90
27409;DHT22;20413;50.782;7.152;2022-07-15T06:25:35;18.50;99.90
27409;DHT22;20413;50.782;7.152;2022-07-15T06:28:00;18.60;99.90
27409;DHT22;20413;50.782;7.152;2022-07-15T06:30:26;18.80;99.90
27409;DHT22;20413;50.782;7.152;2022-07-15T06:32:52;19.00;99.90
27409;DHT22;20413;50.782;7.152;2022-07-15T06:35:18;19.10;99.90
27409;DHT22;20413;50.782;7.152;2022-07-15T06:37:43;19.20;99.90
27409;DHT22;20413;50.782;7.152;2022-07-15T06:40:09;19.50;99.90
27409;DHT22;20413;50.782;7.152;2022-07-15T06:42:35;19.50;99.90
27409;DHT22;20413;50.782;7.152;2022-07-15T06:45:03;19.70;99.90
27409;DHT22;20413;50.782;7.152;2022-07-15T06:47:28;19.70;99.90
27409;DHT22;20413;50.782;7.152;2022-07-15T06:49:54;19.70;99.90
27409;DHT22;20413;50.782;7.152;2022-07-15T06:52:20;19.70;99.90
27409;DHT22;20413;50.782;7.152;2022-07-15T06:54:45;19.70;99.90
27409;DHT22;20413;50.782;7.152;2022-07-15T06:57:11;19.60;99.90
27409;DHT22;20413;50.782;7.152;2022-07-15T06:59:38;19.40;99.90
27409;DHT22;20413;50.782;7.152;2022-07-15T07:02:03;19.30;99.90
27409;DHT22;20413;50.782;7.152;2022-07-15T07:04:29;19.30;99.90
27409;DHT22;20413;50.782;7.152;2022-07-15T07:06:54;19.50;99.90
27409;DHT22;20413;50.782;7.152;2022-07-15T07:09:20;19.60;99.90
27409;DHT22;20413;50.782;7.152;2022-07-15T07:11:46;20.00;99.90
27409;DHT22;20413;50.782;7.152;2022-07-15T07:14:12;20.30;99.90
27409;DHT22;20413;50.782;7.152;2022-07-15T07:16:37;20.70;99.90
27409;DHT22;20413;50.782;7.152;2022-07-15T07:19:03;20.90;99.90
27409;DHT22;20413;50.782;7.152;2022-07-15T07:21:28;20.70;99.90
27409;DHT22;20413;50.782;7.152;2022-07-15T07:23:54;20.50;99.90
27409;DHT22;20413;50.782;7.152;2022-07-15T07:26:19;20.30;99.90
27409;DHT22;20413;50.782;7.152;2022-07-15T07:28:45;20.40;99.90
27409;DHT22;20413;50.782;7.152;2022-07-15T07:31:13;20.60;99.90
27409;DHT22;20413;50.782;7.152;2022-07-15T07:33:39;20.70;99.90
27409;DHT22;20413;50.782;7.152;2022-07-15T07:36:06;21.00;99.90
27409;DHT22;20413;50.782;7.152;2022-07-15T07:38:33;21.10;99.90
27409;DHT22;20413;50.782;7.152;2022-07-15T07:41:00;21.10;99.90
27409;DHT22;20413;50.782;7.152;2022-07-15T07:43:26;21.30;99.90
27409;DHT22;20413;50.782;7.152;2022-07-15T07:45:51;21.70;99.90
27409;DHT22;20413;50.782;7.152;2022-07-15T07:50:44;23.10;99.90
27409;DHT22;20413;50.782;7.152;2022-07-15T07:53:10;24.00;99.90
27409;DHT22;20413;50.782;7.152;2022-07-15T07:55:37;24.60;99.90
27409;DHT22;20413;50.782;7.152;2022-07-15T07:58:03;25.10;97.90
27409;DHT22;20413;50.782;7.152;2022-07-15T08:00:30;24.80;95.70
27409;DHT22;20413;50.782;7.152;2022-07-15T08:02:57;24.10;97.60
27409;DHT22;20413;50.782;7.152;2022-07-15T08:05:24;24.50;97.00
27409;DHT22;20413;50.782;7.152;2022-07-15T08:07:50;25.20;97.40
27409;DHT22;20413;50.782;7.152;2022-07-15T08:10:17;25.50;97.40
27409;DHT22;20413;50.782;7.152;2022-07-15T08:12:44;26.10;93.90
27409;DHT22;20413;50.782;7.152;2022-07-15T08:15:11;25.90;94.20
27409;DHT22;20413;50.782;7.152;2022-07-15T08:17:38;25.60;95.40
27409;DHT22;20413;50.782;7.152;2022-07-15T08:20:08;26.50;95.10
27409;DHT22;20413;50.782;7.152;2022-07-15T08:22:35;27.10;92.00
27409;DHT22;20413;50.782;7.152;2022-07-15T08:25:00;26.60;92.40
27409;DHT22;20413;50.782;7.152;2022-07-15T08:27:26;25.50;92.80
27409;DHT22;20413;50.782;7.152;2022-07-15T08:29:52;24.70;94.00
27409;DHT22;20413;50.782;7.152;2022-07-15T08:32:17;23.90;94.10
27409;DHT22;20413;50.782;7.152;2022-07-15T08:34:43;23.40;96.00
27409;DHT22;20413;50.782;7.152;2022-07-15T08:37:09;23.40;96.70
27409;DHT22;20413;50.782;7.152;2022-07-15T08:39:35;24.50;96.10
27409;DHT22;20413;50.782;7.152;2022-07-15T08:42:03;24.70;94.50
27409;DHT22;20413;50.782;7.152;2022-07-15T08:44:29;25.20;94.40
27409;DHT22;20413;50.782;7.152;2022-07-15T08:47:00;26.20;92.70
27409;DHT22;20413;50.782;7.152;2022-07-15T08:49:29;27.30;91.20
27409;DHT22;20413;50.782;7.152;2022-07-15T08:51:58;26.90;90.60
27409;DHT22;20413;50.782;7.152;2022-07-15T08:54:24;25.50;91.20
27409;DHT22;20413;50.782;7.152;2022-07-15T08:56:50;24.90;92.90
27409;DHT22;20413;50.782;7.152;2022-07-15T08:59:16;25.60;93.00
27409;DHT22;20413;50.782;7.152;2022-07-15T09:01:44;26.10;92.70
27409;DHT22;20413;50.782;7.152;2022-07-15T09:04:11;26.20;92.60
27409;DHT22;20413;50.782;7.152;2022-07-15T09:06:38;26.50;90.80
27409;DHT22;20413;50.782;7.152;2022-07-15T09:09:33;25.90;92.50
27409;DHT22;20413;50.782;7.152;2022-07-15T09:12:08;24.90;92.90
27409;DHT22;20413;50.782;7.152;2022-07-15T09:14:36;24.80;93.60
27409;DHT22;20413;50.782;7.152;2022-07-15T09:22:25;27.50;88.50
27409;DHT22;20413;50.782;7.152;2022-07-15T09:25:05;27.40;83.80
27409;DHT22;20413;50.782;7.152;2022-07-15T09:27:36;26.20;87.50
27409;DHT22;20413;50.782;7.152;2022-07-15T09:30:19;25.60;88.00
27409;DHT22;20413;50.782;7.152;2022-07-15T09:33:08;25.10;91.30
27409;DHT22;20413;50.782;7.152;2022-07-15T09:35:54;24.80;90.80
27409;DHT22;20413;50.782;7.152;2022-07-15T09:38:53;24.20;91.90
27409;DHT22;20413;50.782;7.152;2022-07-15T09:41:27;23.60;92.90
27409;DHT22;20413;50.782;7.152;2022-07-15T09:49:16;22.50;93.60
27409;DHT22;20413;50.782;7.152;2022-07-15T09:54:13;23.30;92.90
27409;DHT22;20413;50.782;7.152;2022-07-15T09:56:39;23.20;93.20
27409;DHT22;20413;50.782;7.152;2022-07-15T09:59:04;23.50;92.90
27409;DHT22;20413;50.782;7.152;2022-07-15T10:01:31;23.70;93.30
27409;DHT22;20413;50.782;7.152;2022-07-15T10:03:57;24.10;92.10
27409;DHT22;20413;50.782;7.152;2022-07-15T10:06:25;24.10;93.50
27409;DHT22;20413;50.782;7.152;2022-07-15T10:08:53;24.40;92.60
27409;DHT22;20413;50.782;7.152;2022-07-15T10:11:19;24.30;91.60
27409;DHT22;20413;50.782;7.152;2022-07-15T10:22:30;24.80;92.30
27409;DHT22;20413;50.782;7.152;2022-07-15T10:25:35;26.60;91.70
27409;DHT22;20413;50.782;7.152;2022-07-15T10:28:13;27.50;90.80
27409;DHT22;20413;50.782;7.152;2022-07-15T10:30:40;27.50;87.90
27409;DHT22;20413;50.782;7.152;2022-07-15T10:33:18;27.20;89.10
27409;DHT22;20413;50.782;7.152;2022-07-15T10:35:49;26.70;89.10
27409;DHT22;20413;50.782;7.152;2022-07-15T10:41:08;26.70;89.90
27409;DHT22;20413;50.782;7.152;2022-07-15T10:43:53;27.60;89.30
27409;DHT22;20413;50.782;7.152;2022-07-15T10:46:22;27.20;88.00
27409;DHT22;20413;50.782;7.152;2022-07-15T10:49:26;27.30;88.30
27409;DHT22;20413;50.782;7.152;2022-07-15T10:56:36;29.50;83.10
27409;DHT22;20413;50.782;7.152;2022-07-15T11:01:35;27.90;83.80
27409;DHT22;20413;50.782;7.152;2022-07-15T11:04:20;27.40;83.20
27409;DHT22;20413;50.782;7.152;2022-07-15T11:09:56;26.60;87.00
27409;DHT22;20413;50.782;7.152;2022-07-15T11:12:54;27.40;86.00
27409;DHT22;20413;50.782;7.152;2022-07-15T11:15:21;26.80;87.10
27409;DHT22;20413;50.782;7.152;2022-07-15T11:17:51;26.60;85.60
27409;DHT22;20413;50.782;7.152;2022-07-15T11:20:20;26.30;88.90
27409;DHT22;20413;50.782;7.152;2022-07-15T11:22:48;26.70;86.00
27409;DHT22;20413;50.782;7.152;2022-07-15T11:30:27;25.70;86.90
27409;DHT22;20413;50.782;7.152;2022-07-15T11:32:58;26.10;89.50
27409;DHT22;20413;50.782;7.152;2022-07-15T11:35:25;26.70;87.00
27409;DHT22;20413;50.782;7.152;2022-07-15T11:38:01;27.70;85.30
27409;DHT22;20413;50.782;7.152;2022-07-15T11:40:27;27.80;81.50
27409;DHT22;20413;50.782;7.152;2022-07-15T11:43:15;27.30;83.70
27409;DHT22;20413;50.782;7.152;2022-07-15T11:45:59;27.00;82.50
27409;DHT22;20413;50.782;7.152;2022-07-15T11:48:37;26.60;92.00
27409;DHT22;20413;50.782;7.152;2022-07-15T11:51:07;26.30;84.90
27409;DHT22;20413;50.782;7.152;2022-07-15T11:53:42;27.50;85.60
27409;DHT22;20413;50.782;7.152;2022-07-15T11:56:11;29.00;88.20
27409;DHT22;20413;50.782;7.152;2022-07-15T11:58:42;29.90;79.80
27409;DHT22;20413;50.782;7.152;2022-07-15T12:01:16;31.00;76.20
27409;DHT22;20413;50.782;7.152;2022-07-15T12:03:44;31.80;77.70
27409;DHT22;20413;50.782;7.152;2022-07-15T12:06:18;31.70;75.60
27409;DHT22;20413;50.782;7.152;2022-07-15T12:08:53;32.50;74.50
27409;DHT22;20413;50.782;7.152;2022-07-15T12:11:33;32.60;71.50
27409;DHT22;20413;50.782;7.152;2022-07-15T12:14:04;32.70;68.60
27409;DHT22;20413;50.782;7.152;2022-07-15T12:19:19;32.70;73.80
27409;DHT22;20413;50.782;7.152;2022-07-15T12:21:58;33.40;72.10
27409;DHT22;20413;50.782;7.152;2022-07-15T12:24:26;33.30;67.30
27409;DHT22;20413;50.782;7.152;2022-07-15T12:27:01;31.70;68.10
27409;DHT22;20413;50.782;7.152;2022-07-15T12:29:29;32.50;68.10
27409;DHT22;20413;50.782;7.152;2022-07-15T12:32:02;32.70;69.60
27409;DHT22;20413;50.782;7.152;2022-07-15T12:37:18;31.50;70.10
27409;DHT22;20413;50.782;7.152;2022-07-15T12:43:03;30.30;71.70
27409;DHT22;20413;50.782;7.152;2022-07-15T12:45:36;29.10;72.80
27409;DHT22;20413;50.782;7.152;2022-07-15T12:48:06;28.40;75.60
27409;DHT22;20413;50.782;7.152;2022-07-15T12:53:18;27.50;78.60
27409;DHT22;20413;50.782;7.152;2022-07-15T12:55:48;27.20;78.90
27409;DHT22;20413;50.782;7.152;2022-07-15T12:58:16;26.90;79.60
27409;DHT22;20413;50.782;7.152;2022-07-15T13:00:44;28.00;76.20
27409;DHT22;20413;50.782;7.152;2022-07-15T13:03:16;28.90;74.40
27409;DHT22;20413;50.782;7.152;2022-07-15T13:05:45;29.50;72.10
27409;DHT22;20413;50.782;7.152;2022-07-15T13:08:22;30.60;76.30
27409;DHT22;20413;50.782;7.152;2022-07-15T13:10:51;31.90;74.80
27409;DHT22;20413;50.782;7.152;2022-07-15T13:13:19;32.40;70.70
27409;DHT22;20413;50.782;7.152;2022-07-15T13:15:46;32.70;69.70
27409;DHT22;20413;50.782;7.152;2022-07-15T13:18:13;33.70;66.20
27409;DHT22;20413;50.782;7.152;2022-07-15T13:20:39;34.20;67.00
27409;DHT22;20413;50.782;7.152;2022-07-15T13:23:05;34.20;65.20
27409;DHT22;20413;50.782;7.152;2022-07-15T13:25:31;34.30;66.20
27409;DHT22;20413;50.782;7.152;2022-07-15T13:27:57;33.40;63.00
27409;DHT22;20413;50.782;7.152;2022-07-15T13:30:24;32.90;66.20
27409;DHT22;20413;50.782;7.152;2022-07-15T13:32:50;32.50;68.90
27409;DHT22;20413;50.782;7.152;2022-07-15T13:35:16;32.50;66.20
27409;DHT22;20413;50.782;7.152;2022-07-15T13:37:42;32.30;69.00
27409;DHT22;20413;50.782;7.152;2022-07-15T13:40:09;32.60;67.50
27409;DHT22;20413;50.782;7.152;2022-07-15T13:45:02;32.90;66.80
27409;DHT22;20413;50.782;7.152;2022-07-15T13:47:27;33.70;65.50
27409;DHT22;20413;50.782;7.152;2022-07-15T13:49:53;33.70;65.40
27409;DHT22;20413;50.782;7.152;2022-07-15T13:52:49;33.60;64.80
27409;DHT22;20413;50.782;7.152;2022-07-15T13:55:16;33.90;64.00
27409;DHT22;20413;50.782;7.152;2022-07-15T13:57:43;33.40;64.00
27409;DHT22;20413;50.782;7.152;2022-07-15T14:00:12;32.60;64.30
27409;DHT22;20413;50.782;7.152;2022-07-15T14:02:39;32.30;65.30
27409;DHT22;20413;50.782;7.152;2022-07-15T14:05:06;32.30;65.10
27409;DHT22;20413;50.782;7.152;2022-07-15T14:07:32;31.90;65.20
27409;DHT22;20413;50.782;7.152;2022-07-15T14:09:58;31.80;63.90
27409;DHT22;20413;50.782;7.152;2022-07-15T14:12:24;31.30;67.90
27409;DHT22;20413;50.782;7.152;2022-07-15T14:14:50;31.10;66.40
27409;DHT22;20413;50.782;7.152;2022-07-15T14:17:16;31.20;66.90
27409;DHT22;20413;50.782;7.152;2022-07-15T14:19:42;31.70;66.40
27409;DHT22;20413;50.782;7.152;2022-07-15T14:22:07;31.10;66.40
27409;DHT22;20413;50.782;7.152;2022-07-15T14:24:33;31.40;66.40
27409;DHT22;20413;50.782;7.152;2022-07-15T14:27:02;31.00;64.40
27409;DHT22;20413;50.782;7.152;2022-07-15T14:29:28;30.60;67.00
27409;DHT22;20413;50.782;7.152;2022-07-15T14:31:53;30.40;67.40
27409;DHT22;20413;50.782;7.152;2022-07-15T14:34:19;30.40;66.60
27409;DHT22;20413;50.782;7.152;2022-07-15T14:36:45;30.40;68.50
27409;DHT22;20413;50.782;7.152;2022-07-15T14:39:10;30.30;66.80
27409;DHT22;20413;50.782;7.152;2022-07-15T14:41:36;29.20;70.60
27409;DHT22;20413;50.782;7.152;2022-07-15T14:46:29;27.60;73.70
27409;DHT22;20413;50.782;7.152;2022-07-15T14:48:54;27.20;74.10
27409;DHT22;20413;50.782;7.152;2022-07-15T14:51:20;26.80;74.70
27409;DHT22;20413;50.782;7.152;2022-07-15T14:53:46;26.50;75.90
27409;DHT22;20413;50.782;7.152;2022-07-15T14:56:12;26.20;76.50
27409;DHT22;20413;50.782;7.152;2022-07-15T14:58:37;25.90;76.80
27409;DHT22;20413;50.782;7.152;2022-07-15T15:01:03;25.70;78.30
27409;DHT22;20413;50.782;7.152;2022-07-15T15:03:29;25.80;78.00
27409;DHT22;20413;50.782;7.152;2022-07-15T15:05:55;25.90;79.20
27409;DHT22;20413;50.782;7.152;2022-07-15T15:08:22;26.10;78.60
27409;DHT22;20413;50.782;7.152;2022-07-15T15:10:47;25.90;77.50
27409;DHT22;20413;50.782;7.152;2022-07-15T15:13:13;25.70;80.70
27409;DHT22;20413;50.782;7.152;2022-07-15T15:15:38;25.60;79.30
27409;DHT22;20413;50.782;7.152;2022-07-15T15:18:04;25.30;78.90
27409;DHT22;20413;50.782;7.152;2022-07-15T15:20:30;25.30;80.50
27409;DHT22;20413;50.782;7.152;2022-07-15T15:22:56;25.60;82.20
27409;DHT22;20413;50.782;7.152;2022-07-15T15:25:21;25.70;79.40
27409;DHT22;20413;50.782;7.152;2022-07-15T15:28:05;25.70;81.10
27409;DHT22;20413;50.782;7.152;2022-07-15T15:30:32;25.90;79.50
27409;DHT22;20413;50.782;7.152;2022-07-15T15:32:57;26.60;77.40
27409;DHT22;20413;50.782;7.152;2022-07-15T15:35:23;28.00;75.20
27409;DHT22;20413;50.782;7.152;2022-07-15T15:37:49;27.80;74.90
27409;DHT22;20413;50.782;7.152;2022-07-15T15:40:15;27.50;75.40
27409;DHT22;20413;50.782;7.152;2022-07-15T15:42:40;27.00;75.60
27409;DHT22;20413;50.782;7.152;2022-07-15T15:45:06;26.30;78.30
27409;DHT22;20413;50.782;7.152;2022-07-15T15:47:32;26.10;79.30
27409;DHT22;20413;50.782;7.152;2022-07-15T15:49:57;25.90;80.60
27409;DHT22;20413;50.782;7.152;2022-07-15T15:52:23;25.90;78.90
27409;DHT22;20413;50.782;7.152;2022-07-15T15:54:49;25.50;80.20
27409;DHT22;20413;50.782;7.152;2022-07-15T15:57:15;25.30;82.10
27409;DHT22;20413;50.782;7.152;2022-07-15T15:59:40;25.10;83.70
27409;DHT22;20413;50.782;7.152;2022-07-15T16:02:06;25.20;82.30
27409;DHT22;20413;50.782;7.152;2022-07-15T16:04:31;25.80;80.70
27409;DHT22;20413;50.782;7.152;2022-07-15T16:06:57;26.60;80.90
27409;DHT22;20413;50.782;7.152;2022-07-15T16:09:22;27.20;75.90
27409;DHT22;20413;50.782;7.152;2022-07-15T16:11:48;27.90;79.10
27409;DHT22;20413;50.782;7.152;2022-07-15T16:14:14;28.70;74.70
27409;DHT22;20413;50.782;7.152;2022-07-15T16:16:40;28.70;72.60
27409;DHT22;20413;50.782;7.152;2022-07-15T16:19:06;28.70;72.90
27409;DHT22;20413;50.782;7.152;2022-07-15T16:21:31;29.30;76.30
27409;DHT22;20413;50.782;7.152;2022-07-15T16:24:16;28.90;73.90
27409;DHT22;20413;50.782;7.152;2022-07-15T16:26:41;28.20;74.90
27409;DHT22;20413;50.782;7.152;2022-07-15T16:29:07;27.60;76.20
27409;DHT22;20413;50.782;7.152;2022-07-15T16:31:33;26.90;77.60
27409;DHT22;20413;50.782;7.152;2022-07-15T16:33:59;26.60;77.50